Time;durP1;ratioP1;P1;durP2;ratioP2;P2;SDS_P1;SDS_P2;PMS_P1;PMS_P2;Temp;Humidity;BMP_temperature;BMP_pressure;BME280_temperature;BME280_humidity;BME280_pressure;Samples;Min_cycle;Max_cycle;Signal;HPM_P1;HPM_P2
2021/01/23 00:01:03;;;;;;;15.48;4.07;;;4.50;99.90;;;;;;4962926;28;20109;-68
2021/01/23 00:03:30;;;;;;;11.75;4.45;;;4.40;99.90;;;;;;4967234;28;20149;-71
2021/01/23 00:05:56;;;;;;;8.30;3.67;;;4.40;99.90;;;;;;4969921;28;20043;-69
2021/01/23 00:08:22;;;;;;;7.25;2.78;;;4.40;99.90;;;;;;4960447;28;20157;-68
2021/01/23 00:10:49;;;;;;;12.60;5.57;;;4.40;99.90;;;;;;4964386;28;20153;-65
2021/01/23 00:13:15;;;;;;;11.60;3.75;;;4.40;99.90;;;;;;4973528;28;20467;-65
2021/01/23 00:15:42;;;;;;;8.00;3.67;;;4.40;99.90;;;;;;4965165;28;20057;-69
2021/01/23 00:18:08;;;;;;;9.15;3.22;;;4.40;99.90;;;;;;4967816;28;20317;-69
2021/01/23 00:20:35;;;;;;;10.82;3.45;;;4.40;99.90;;;;;;4963084;28;20487;-66
2021/01/23 00:23:02;;;;;;;8.82;3.33;;;4.40;99.90;;;;;;4966423;28;20153;-70
2021/01/23 00:25:28;;;;;;;10.30;3.63;;;4.40;99.90;;;;;;4962155;28;20113;-66
2021/01/23 00:27:55;;;;;;;12.63;4.50;;;4.40;99.90;;;;;;4957380;28;20058;-68
2021/01/23 00:30:21;;;;;;;8.63;3.20;;;4.30;99.90;;;;;;4960297;28;20104;-74
2021/01/23 00:32:48;;;;;;;12.13;4.07;;;4.30;99.90;;;;;;4961257;28;20059;-66
2021/01/23 00:35:15;;;;;;;12.43;4.80;;;4.30;99.90;;;;;;4969688;28;20055;-68
2021/01/23 00:37:42;;;;;;;6.95;3.33;;;4.30;99.90;;;;;;4962636;28;20059;-69
2021/01/23 00:40:08;;;;;;;12.73;5.45;;;4.30;99.90;;;;;;4966218;28;20475;-71
2021/01/23 00:42:35;;;;;;;15.23;2.83;;;4.30;99.90;;;;;;4962953;28;20407;-68
2021/01/23 00:45:02;;;;;;;8.57;3.33;;;4.40;99.90;;;;;;4964049;28;20063;-67
2021/01/23 00:47:29;;;;;;;15.18;4.13;;;4.30;99.90;;;;;;4964677;28;20517;-67
2021/01/23 00:49:56;;;;;;;15.30;4.97;;;4.30;99.90;;;;;;4963020;28;20047;-70
2021/01/23 00:52:23;;;;;;;11.23;3.20;;;4.30;99.90;;;;;;4960607;28;20146;-67
2021/01/23 00:54:50;;;;;;;7.95;3.33;;;4.30;99.90;;;;;;4971098;28;20859;-69
2021/01/23 00:57:17;;;;;;;9.70;3.35;;;4.30;99.90;;;;;;4959565;28;20093;-66
2021/01/23 00:59:44;;;;;;;11.52;4.03;;;4.30;99.90;;;;;;4965282;28;20715;-65
2021/01/23 01:02:10;;;;;;;14.95;3.88;;;4.30;99.90;;;;;;4958241;28;20070;-66
2021/01/23 01:04:40;;;;;;;13.40;3.77;;;4.30;99.90;;;;;;4962687;28;20051;-69
2021/01/23 01:07:06;;;;;;;12.35;3.80;;;4.30;99.90;;;;;;4962795;28;20304;-69
2021/01/23 01:09:33;;;;;;;11.02;3.65;;;4.20;99.90;;;;;;4963451;28;20054;-65
2021/01/23 01:11:59;;;;;;;15.27;4.22;;;4.20;99.90;;;;;;4968736;28;20049;-70
2021/01/23 01:14:26;;;;;;;10.57;4.22;;;4.20;99.90;;;;;;4961907;28;20042;-67
2021/01/23 01:16:52;;;;;;;11.98;3.42;;;4.20;99.90;;;;;;4965254;28;20098;-65
2021/01/23 01:19:19;;;;;;;11.98;4.05;;;4.20;99.90;;;;;;4960637;28;20058;-65
2021/01/23 01:21:45;;;;;;;10.73;3.40;;;4.10;99.90;;;;;;4969980;28;20764;-66
2021/01/23 01:24:12;;;;;;;11.45;3.45;;;4.20;99.90;;;;;;4958590;28;21035;-67
2021/01/23 01:26:38;;;;;;;13.00;3.60;;;4.20;99.90;;;;;;4953213;28;20511;-68
2021/01/23 01:29:05;;;;;;;5.32;3.05;;;4.20;99.90;;;;;;4962660;28;20046;-70
2021/01/23 01:31:31;;;;;;;10.52;3.33;;;4.20;99.90;;;;;;4964060;28;20138;-67
2021/01/23 01:33:58;;;;;;;12.70;3.35;;;4.20;99.90;;;;;;4970708;28;20125;-69
2021/01/23 01:36:24;;;;;;;7.20;2.90;;;4.20;99.90;;;;;;4960566;28;20046;-66
2021/01/23 01:38:50;;;;;;;12.07;3.83;;;4.10;99.90;;;;;;4964996;28;20062;-65
2021/01/23 01:41:17;;;;;;;15.68;4.00;;;4.20;99.90;;;;;;4966030;28;20466;-68
2021/01/23 01:43:45;;;;;;;10.82;2.58;;;4.20;99.90;;;;;;4958364;28;20042;-66
2021/01/23 01:46:14;;;;;;;11.10;2.83;;;4.20;99.90;;;;;;4961511;28;20546;-68
2021/01/23 01:48:41;;;;;;;11.43;2.65;;;4.20;99.90;;;;;;4972661;28;20045;-68
2021/01/23 01:51:07;;;;;;;7.40;2.55;;;4.20;99.90;;;;;;4964855;28;20343;-66
2021/01/23 01:53:38;;;;;;;18.40;3.95;;;4.20;99.90;;;;;;4957214;28;20042;-66
2021/01/23 01:56:06;;;;;;;12.20;6.00;;;4.20;99.90;;;;;;4963649;28;20056;-71
2021/01/23 01:58:33;;;;;;;7.32;2.50;;;4.20;99.90;;;;;;4957648;28;20054;-66
2021/01/23 02:00:59;;;;;;;10.93;3.00;;;4.20;99.90;;;;;;4960701;28;20129;-68
2021/01/23 02:03:40;;;;;;;11.45;4.53;;;4.20;99.90;;;;;;4961209;28;20058;-65
2021/01/23 02:06:15;;;;;;;;;;;4.20;99.90;;;;;;4967654;28;20055;-68
2021/01/23 02:09:00;;;;;;;13.98;3.05;;;4.20;99.90;;;;;;4960858;28;19930;-68
2021/01/23 02:11:34;;;;;;;13.65;2.80;;;4.20;99.90;;;;;;4961529;28;20177;-66
2021/01/23 02:14:24;;;;;;;10.27;2.60;;;4.20;99.90;;;;;;4959989;28;20054;-66
2021/01/23 02:16:54;;;;;;;6.43;2.85;;;4.20;99.90;;;;;;4958330;28;20047;-65
2021/01/23 02:19:27;;;;;;;12.10;4.25;;;4.20;99.90;;;;;;4961528;28;20115;-69
2021/01/23 02:22:05;;;;;;;5.70;2.38;;;4.20;99.90;;;;;;4960676;28;20152;-66
2021/01/23 02:24:32;;;;;;;9.88;2.78;;;4.20;99.90;;;;;;4958862;28;20604;-66
2021/01/23 02:26:59;;;;;;;10.18;3.22;;;4.20;99.90;;;;;;4955076;28;20046;-68
2021/01/23 02:29:47;;;;;;;7.82;3.30;;;4.20;99.90;;;;;;4958772;28;20074;-68
2021/01/23 02:32:15;;;;;;;9.45;2.72;;;4.20;99.90;;;;;;4958532;28;20054;-66
2021/01/23 02:34:42;;;;;;;8.88;3.17;;;4.20;99.90;;;;;;4960447;28;20049;-68
2021/01/23 02:37:09;;;;;;;7.38;2.70;;;4.30;99.90;;;;;;4961919;28;20062;-66
2021/01/23 02:39:36;;;;;;;7.50;2.92;;;4.20;99.90;;;;;;4963535;28;20527;-67
2021/01/23 02:42:04;;;;;;;10.32;3.33;;;4.20;99.90;;;;;;4964095;28;20105;-66
2021/01/23 02:44:30;;;;;;;13.98;3.13;;;4.20;99.90;;;;;;4960557;28;20415;-71
2021/01/23 02:46:57;;;;;;;13.18;3.80;;;4.20;99.90;;;;;;4962288;28;20050;-67
2021/01/23 02:49:25;;;;;;;9.77;2.80;;;4.20;99.90;;;;;;4961059;28;20534;-69
2021/01/23 02:51:51;;;;;;;16.83;3.60;;;4.20;99.90;;;;;;4962217;28;20696;-68
2021/01/23 02:54:32;;;;;;;9.93;3.05;;;4.20;99.90;;;;;;4969188;28;20069;-69
2021/01/23 02:57:01;;;;;;;13.95;2.13;;;4.10;99.90;;;;;;4959331;28;20053;-70
2021/01/23 02:59:32;;;;;;;14.30;3.47;;;4.20;99.90;;;;;;4964968;28;20055;-68
2021/01/23 03:02:01;;;;;;;10.18;3.03;;;4.10;99.90;;;;;;4960651;28;20293;-65
2021/01/23 03:04:30;;;;;;;14.45;2.70;;;4.10;99.90;;;;;;4962672;28;20062;-69
2021/01/23 03:06:56;;;;;;;11.55;2.45;;;4.10;99.90;;;;;;4958802;28;20133;-66
2021/01/23 03:09:25;;;;;;;11.27;2.35;;;4.10;99.90;;;;;;4957102;28;20054;-67
2021/01/23 03:11:52;;;;;;;3.08;1.77;;;4.10;99.90;;;;;;4955612;28;20101;-68
2021/01/23 03:14:19;;;;;;;14.13;2.97;;;4.20;99.90;;;;;;4961753;28;20039;-67
2021/01/23 03:16:48;;;;;;;8.77;2.30;;;4.20;99.90;;;;;;4961180;28;20382;-68
2021/01/23 03:19:15;;;;;;;10.13;2.60;;;4.20;99.90;;;;;;4959918;28;20137;-68
2021/01/23 03:21:42;;;;;;;9.80;2.47;;;4.20;99.90;;;;;;4960144;28;20150;-72
2021/01/23 03:24:09;;;;;;;12.15;3.20;;;4.20;99.90;;;;;;4957861;28;20154;-67
2021/01/23 03:26:36;;;;;;;9.40;3.00;;;4.20;99.90;;;;;;4967570;28;20523;-68
2021/01/23 03:29:02;;;;;;;7.90;3.40;;;4.20;99.90;;;;;;4961695;28;20042;-66
2021/01/23 03:31:29;;;;;;;8.95;3.17;;;4.10;99.90;;;;;;4970054;28;20145;-66
2021/01/23 03:33:56;;;;;;;8.65;2.80;;;4.20;99.90;;;;;;4960944;28;20061;-65
2021/01/23 03:36:25;;;;;;;6.45;2.13;;;4.20;99.90;;;;;;4960320;28;20165;-67
2021/01/23 03:38:52;;;;;;;11.90;2.20;;;4.20;99.90;;;;;;4957304;28;20490;-66
2021/01/23 03:41:19;;;;;;;9.05;2.17;;;4.20;99.90;;;;;;4970111;28;20601;-66
2021/01/23 03:43:45;;;;;;;9.88;2.00;;;4.20;99.90;;;;;;4963210;28;20043;-69
2021/01/23 03:46:13;;;;;;;6.53;2.38;;;4.20;99.90;;;;;;4962783;28;20467;-67
2021/01/23 03:48:40;;;;;;;7.32;1.80;;;4.20;99.90;;;;;;4968429;28;20047;-69
2021/01/23 03:51:06;;;;;;;13.98;3.20;;;4.20;99.90;;;;;;4964103;28;20043;-67
2021/01/23 03:53:33;;;;;;;5.97;2.28;;;4.30;99.90;;;;;;4967349;28;20061;-69
2021/01/23 03:56:00;;;;;;;9.63;1.85;;;4.20;99.90;;;;;;4964865;28;20065;-69
2021/01/23 03:58:26;;;;;;;11.75;2.45;;;4.20;99.90;;;;;;4965395;28;20363;-66
2021/01/23 04:00:53;;;;;;;16.95;3.60;;;4.20;99.90;;;;;;4963661;28;20090;-67
2021/01/23 04:03:19;;;;;;;5.30;2.20;;;4.20;99.90;;;;;;4969470;28;20085;-68
2021/01/23 04:05:46;;;;;;;10.57;3.33;;;4.20;99.90;;;;;;4965784;28;20125;-68
2021/01/23 04:08:12;;;;;;;10.55;2.50;;;4.20;99.90;;;;;;4965987;28;20042;-69
2021/01/23 04:10:39;;;;;;;6.22;2.13;;;4.20;99.90;;;;;;4962328;28;20627;-72
2021/01/23 04:13:06;;;;;;;6.55;1.92;;;4.20;99.90;;;;;;4965089;28;20050;-65
2021/01/23 04:15:32;;;;;;;5.05;3.40;;;4.20;99.90;;;;;;4967055;28;20137;-65
2021/01/23 04:17:59;;;;;;;8.32;2.17;;;4.20;99.90;;;;;;4968663;28;20112;-66
2021/01/23 04:20:25;;;;;;;7.10;2.80;;;4.20;99.90;;;;;;4964994;28;20144;-67
2021/01/23 04:22:52;;;;;;;11.85;5.75;;;4.20;99.90;;;;;;4960953;28;20058;-66
2021/01/23 04:25:18;;;;;;;9.40;2.72;;;4.20;99.90;;;;;;4965910;28;20057;-68
2021/01/23 04:27:45;;;;;;;7.35;2.55;;;4.10;99.90;;;;;;4964706;28;20047;-68
2021/01/23 04:30:11;;;;;;;6.72;2.17;;;4.10;99.90;;;;;;4972186;28;20384;-70
2021/01/23 04:32:39;;;;;;;12.57;3.25;;;4.20;99.90;;;;;;4962076;28;20042;-71
2021/01/23 04:35:11;;;;;;;10.15;3.00;;;4.10;99.90;;;;;;4966741;28;20164;-66
2021/01/23 04:37:40;;;;;;;7.03;2.53;;;4.10;99.90;;;;;;4961729;28;20133;-70
2021/01/23 04:40:08;;;;;;;10.50;2.65;;;4.20;99.90;;;;;;4954366;28;20122;-68
2021/01/23 04:42:39;;;;;;;11.23;2.60;;;4.20;99.90;;;;;;4959308;28;20721;-71
2021/01/23 04:45:06;;;;;;;12.98;2.55;;;4.20;99.90;;;;;;4969847;28;20042;-65
2021/01/23 04:47:33;;;;;;;9.93;3.28;;;4.10;99.90;;;;;;4966129;28;20165;-70
2021/01/23 04:49:59;;;;;;;9.93;2.55;;;4.10;99.90;;;;;;4963115;28;20238;-69
2021/01/23 04:52:27;;;;;;;13.60;2.50;;;4.10;99.90;;;;;;4957355;28;22385;-67
2021/01/23 04:54:54;;;;;;;8.38;3.28;;;4.10;99.90;;;;;;4963899;28;20047;-66
2021/01/23 04:57:20;;;;;;;11.85;2.65;;;4.10;99.90;;;;;;4968655;28;20395;-70
2021/01/23 04:59:47;;;;;;;19.80;3.72;;;4.10;99.90;;;;;;4962583;28;20046;-66
2021/01/23 05:02:18;;;;;;;8.18;2.13;;;4.10;99.90;;;;;;4961264;28;20494;-66
2021/01/23 05:04:47;;;;;;;12.00;2.90;;;4.10;99.90;;;;;;4962477;28;20103;-71
2021/01/23 05:07:34;;;;;;;13.10;3.15;;;4.10;99.90;;;;;;4962327;28;20473;-67
2021/01/23 05:10:24;;;;;;;8.20;2.65;;;4.10;99.90;;;;;;4963273;28;20076;-70
2021/01/23 05:12:52;;;;;;;6.65;2.35;;;4.10;99.90;;;;;;4967623;28;20531;-68
2021/01/23 05:15:26;;;;;;;6.05;2.08;;;4.10;99.90;;;;;;4964130;28;20644;-68
2021/01/23 05:18:00;;;;;;;11.25;3.58;;;4.10;99.90;;;;;;4967454;28;20055;-68
2021/01/23 05:20:37;;;;;;;8.25;2.28;;;4.10;99.90;;;;;;4959550;28;25153;-66
2021/01/23 05:23:07;;;;;;;7.82;3.97;;;4.20;99.90;;;;;;4956106;28;20051;-71
2021/01/23 05:25:35;;;;;;;13.02;3.28;;;4.10;99.90;;;;;;4965347;28;20138;-67
2021/01/23 05:28:04;;;;;;;9.02;2.30;;;4.10;99.90;;;;;;4965586;28;20055;-66
2021/01/23 05:30:39;;;;;;;7.50;3.90;;;4.20;99.90;;;;;;4966323;28;20057;-67
2021/01/23 05:33:09;;;;;;;16.25;3.00;;;4.20;99.90;;;;;;4964049;28;20058;-67
2021/01/23 05:35:36;;;;;;;8.60;3.08;;;4.10;99.90;;;;;;4968061;28;20463;-65
2021/01/23 05:38:31;;;;;;;11.80;4.03;;;4.20;99.90;;;;;;4961308;28;20079;-68
2021/01/23 05:41:09;;;;;;;12.10;2.88;;;4.20;99.90;;;;;;4963855;28;20117;-70
2021/01/23 05:43:55;;;;;;;11.68;3.67;;;4.20;99.90;;;;;;4961321;28;20065;-67
2021/01/23 05:46:27;;;;;;;10.77;2.55;;;4.20;99.90;;;;;;4963075;28;20061;-67
2021/01/23 05:48:55;;;;;;;7.88;2.75;;;4.20;99.90;;;;;;4962622;28;20113;-66
2021/01/23 05:51:22;;;;;;;6.35;1.80;;;4.20;99.90;;;;;;4969295;28;20066;-66
2021/01/23 05:53:50;;;;;;;8.77;2.20;;;4.10;99.90;;;;;;4959671;28;20058;-69
2021/01/23 05:56:17;;;;;;;7.85;3.13;;;4.10;99.90;;;;;;4965082;28;20101;-70
2021/01/23 05:58:44;;;;;;;9.05;2.13;;;4.10;99.90;;;;;;4962325;28;20066;-70
2021/01/23 06:01:16;;;;;;;12.82;2.92;;;4.10;99.90;;;;;;4967228;28;20050;-73
2021/01/23 06:03:46;;;;;;;16.02;2.90;;;4.10;99.90;;;;;;4959834;28;20047;-65
2021/01/23 06:06:12;;;;;;;7.53;2.70;;;4.10;99.90;;;;;;4964891;28;20058;-68
2021/01/23 06:08:47;;;;;;;11.10;2.60;;;4.10;99.90;;;;;;4961481;28;20050;-68
2021/01/23 06:11:20;;;;;;;6.85;2.13;;;4.10;99.90;;;;;;4961712;28;20051;-66
2021/01/23 06:13:48;;;;;;;7.57;4.07;;;4.10;99.90;;;;;;4966390;28;20058;-66
2021/01/23 06:16:33;;;;;;;11.80;2.28;;;4.10;99.90;;;;;;4956338;28;20074;-67
2021/01/23 06:19:06;;;;;;;10.52;2.70;;;4.00;99.90;;;;;;4959517;28;20053;-68
2021/01/23 06:21:52;;;;;;;6.72;3.13;;;4.10;99.90;;;;;;4960590;28;20085;-69
2021/01/23 06:24:44;;;;;;;7.65;2.03;;;4.10;99.90;;;;;;4966388;28;20053;-69
2021/01/23 06:27:11;;;;;;;10.30;2.65;;;4.10;99.90;;;;;;4962902;28;20065;-67
2021/01/23 06:29:42;;;;;;;7.43;2.33;;;4.10;99.90;;;;;;4961697;28;20046;-68
2021/01/23 06:32:17;;;;;;;16.58;3.40;;;4.10;99.90;;;;;;4959679;28;20149;-66
2021/01/23 06:34:44;;;;;;;9.65;2.53;;;4.00;99.90;;;;;;4962625;28;20530;-67
2021/01/23 06:37:39;;;;;;;19.52;4.22;;;4.00;99.90;;;;;;4959183;28;20519;-69
2021/01/23 06:40:29;;;;;;;19.13;4.22;;;4.00;99.90;;;;;;4960244;28;20142;-65
2021/01/23 06:42:56;;;;;;;26.60;3.53;;;4.00;99.90;;;;;;4962801;28;20051;-66
2021/01/23 06:45:24;;;;;;;14.68;3.30;;;4.00;99.90;;;;;;4961384;28;20177;-68
2021/01/23 06:47:53;;;;;;;9.00;2.58;;;4.00;99.90;;;;;;4967866;28;20054;-70
2021/01/23 06:50:39;;;;;;;9.77;2.47;;;4.00;99.90;;;;;;4961129;28;20047;-69
2021/01/23 06:53:08;;;;;;;9.77;2.45;;;4.00;99.90;;;;;;4962184;28;20165;-67
2021/01/23 06:55:45;;;;;;;16.15;3.30;;;4.00;99.90;;;;;;4962194;28;20067;-70
2021/01/23 06:58:16;;;;;;;13.20;4.28;;;4.00;99.90;;;;;;4968729;28;20065;-71
2021/01/23 07:00:42;;;;;;;14.82;3.30;;;4.00;99.90;;;;;;4963559;28;20047;-69
2021/01/23 07:03:10;;;;;;;9.45;2.90;;;4.00;99.90;;;;;;4963238;28;20447;-66
2021/01/23 07:05:45;;;;;;;13.98;3.15;;;3.90;99.90;;;;;;4966901;28;20503;-73
2021/01/23 07:08:31;;;;;;;12.60;2.78;;;3.90;99.90;;;;;;4958177;28;20177;-66
2021/01/23 07:11:17;;;;;;;9.85;3.03;;;3.90;99.90;;;;;;4964470;28;20101;-71
2021/01/23 07:13:57;;;;;;;9.23;3.60;;;3.90;99.90;;;;;;4963209;28;20157;-69
2021/01/23 07:16:24;;;;;;;7.93;3.15;;;3.90;99.90;;;;;;4964963;28;20054;-66
2021/01/23 07:19:06;;;;;;;7.88;2.72;;;3.90;99.90;;;;;;4965146;28;20520;-67
2021/01/23 07:21:35;;;;;;;16.50;2.65;;;3.90;99.90;;;;;;4964326;28;20073;-68
2021/01/23 07:24:03;;;;;;;13.23;3.10;;;3.90;99.90;;;;;;4963268;28;20547;-67
2021/01/23 07:26:31;;;;;;;13.15;4.35;;;3.90;99.90;;;;;;4965508;28;20073;-65
2021/01/23 07:28:58;;;;;;;15.27;2.65;;;3.90;99.90;;;;;;4965613;28;20050;-71
2021/01/23 07:31:27;;;;;;;6.95;2.20;;;3.90;99.90;;;;;;4975931;28;20289;-67
2021/01/23 07:33:56;;;;;;;11.43;3.13;;;3.90;99.90;;;;;;4963201;28;20054;-68
2021/01/23 07:36:29;;;;;;;17.92;3.47;;;4.00;99.90;;;;;;4967407;28;20050;-68
2021/01/23 07:38:56;;;;;;;16.48;3.90;;;4.00;99.90;;;;;;4965170;28;20075;-68
2021/01/23 07:41:23;;;;;;;11.43;3.97;;;4.00;99.90;;;;;;4965560;28;20117;-68
2021/01/23 07:43:50;;;;;;;9.48;2.70;;;3.90;99.90;;;;;;4964021;28;20493;-66
2021/01/23 07:46:16;;;;;;;11.50;3.35;;;3.90;99.90;;;;;;4956986;28;20071;-69
2021/01/23 07:48:43;;;;;;;11.07;3.58;;;3.90;99.90;;;;;;4962982;28;20050;-69
2021/01/23 07:51:30;;;;;;;16.25;3.00;;;3.90;99.90;;;;;;4968691;28;20898;-66
2021/01/23 07:54:09;;;;;;;14.32;3.45;;;3.90;99.90;;;;;;4966470;28;20066;-70
2021/01/23 07:56:38;;;;;;;10.83;3.10;;;3.90;99.90;;;;;;4965710;28;20051;-66
2021/01/23 07:59:05;;;;;;;9.93;2.92;;;3.90;99.90;;;;;;4964565;28;20319;-67
2021/01/23 08:01:31;;;;;;;10.15;2.70;;;4.00;99.90;;;;;;4966434;28;20481;-65
2021/01/23 08:03:58;;;;;;;9.00;3.20;;;4.00;99.90;;;;;;4964354;28;20053;-65
2021/01/23 08:06:26;;;;;;;9.60;3.60;;;4.00;99.90;;;;;;4961582;28;20058;-66
2021/01/23 08:08:53;;;;;;;14.35;3.15;;;4.00;99.90;;;;;;4964572;28;20062;-67
2021/01/23 08:11:37;;;;;;;14.25;2.88;;;4.10;99.90;;;;;;4965413;28;20047;-66
2021/01/23 08:14:10;;;;;;;14.98;2.70;;;4.10;99.90;;;;;;4964942;28;20078;-66
2021/01/23 08:16:53;;;;;;;12.07;3.13;;;4.10;99.90;;;;;;4962192;28;20575;-67
2021/01/23 08:19:20;;;;;;;17.45;3.75;;;4.10;99.90;;;;;;4972361;28;20505;-68
2021/01/23 08:22:07;;;;;;;10.63;2.65;;;4.10;99.90;;;;;;4964526;28;20054;-67
2021/01/23 08:24:34;;;;;;;10.82;4.65;;;4.20;99.90;;;;;;4966078;28;20082;-65
2021/01/23 08:27:17;;;;;;;10.20;3.83;;;4.20;99.90;;;;;;4963357;28;20102;-69
2021/01/23 08:29:49;;;;;;;16.65;2.92;;;4.20;99.90;;;;;;4966422;28;20086;-67
2021/01/23 08:32:15;;;;;;;12.02;2.83;;;4.30;99.90;;;;;;4964726;28;20039;-70
2021/01/23 08:34:44;;;;;;;11.95;2.33;;;4.30;99.90;;;;;;4966855;28;20059;-65
2021/01/23 08:37:10;;;;;;;7.75;2.40;;;4.30;99.90;;;;;;4962450;28;20692;-67
2021/01/23 08:39:45;;;;;;;10.88;2.75;;;4.40;99.90;;;;;;4965579;28;20133;-68
2021/01/23 08:42:12;;;;;;;12.55;2.60;;;4.40;99.90;;;;;;4961046;28;20043;-72
2021/01/23 08:44:39;;;;;;;10.75;3.60;;;4.40;99.90;;;;;;4963413;28;20054;-67
2021/01/23 08:47:06;;;;;;;13.65;2.95;;;4.40;99.90;;;;;;4964125;28;20104;-65
2021/01/23 08:49:33;;;;;;;10.43;3.55;;;4.40;99.90;;;;;;4961026;28;20061;-69
2021/01/23 08:52:00;;;;;;;12.38;4.45;;;4.40;99.90;;;;;;4959510;28;20128;-72
2021/01/23 08:54:26;;;;;;;8.80;2.38;;;4.50;99.90;;;;;;4960561;28;20082;-66
2021/01/23 08:56:52;;;;;;;14.40;4.38;;;4.50;99.90;;;;;;4957107;28;20161;-68
2021/01/23 08:59:19;;;;;;;14.38;3.92;;;4.50;99.90;;;;;;4962565;28;20074;-67
2021/01/23 09:01:45;;;;;;;9.07;2.78;;;4.50;99.90;;;;;;4975550;28;20510;-69
2021/01/23 09:04:12;;;;;;;22.60;4.43;;;4.50;99.90;;;;;;4960110;28;20059;-68
2021/01/23 09:06:39;;;;;;;18.20;4.70;;;4.50;99.90;;;;;;4971154;28;20046;-72
2021/01/23 09:09:06;;;;;;;11.13;2.83;;;4.50;99.90;;;;;;4962948;28;20532;-66
2021/01/23 09:11:36;;;;;;;9.05;3.28;;;4.50;99.90;;;;;;4969179;28;20136;-66
2021/01/23 09:14:04;;;;;;;23.02;3.88;;;4.60;99.90;;;;;;4968692;28;20051;-67
2021/01/23 09:16:31;;;;;;;9.20;2.85;;;4.60;99.90;;;;;;4962255;28;20054;-69
2021/01/23 09:18:58;;;;;;;15.90;3.10;;;4.50;99.90;;;;;;4971826;28;20051;-68
2021/01/23 09:21:25;;;;;;;10.93;2.78;;;4.50;99.90;;;;;;4961821;28;20050;-66
2021/01/23 09:23:51;;;;;;;15.15;3.05;;;4.50;99.90;;;;;;4968123;28;20078;-68
2021/01/23 09:26:18;;;;;;;9.13;3.58;;;4.50;99.90;;;;;;4963146;28;20081;-66
2021/01/23 09:28:45;;;;;;;14.35;4.07;;;4.50;99.90;;;;;;4959264;28;20050;-68
2021/01/23 09:31:11;;;;;;;13.95;3.00;;;4.50;99.90;;;;;;4961088;28;20097;-66
2021/01/23 09:33:38;;;;;;;10.20;2.63;;;4.60;99.90;;;;;;4965270;28;20093;-67
2021/01/23 09:36:05;;;;;;;11.57;2.28;;;4.60;99.90;;;;;;4959140;28;20143;-66
2021/01/23 09:38:31;;;;;;;11.57;2.50;;;4.60;99.90;;;;;;4961813;28;20050;-65
2021/01/23 09:40:58;;;;;;;20.90;2.50;;;4.70;99.90;;;;;;4963196;28;20438;-68
2021/01/23 09:43:24;;;;;;;13.13;2.55;;;4.70;99.90;;;;;;4965206;28;20056;-65
2021/01/23 09:45:51;;;;;;;15.07;3.13;;;4.70;99.90;;;;;;4963015;28;20165;-68
2021/01/23 09:48:20;;;;;;;13.20;2.63;;;4.70;99.90;;;;;;4961658;28;20051;-67
2021/01/23 09:50:46;;;;;;;7.07;3.35;;;4.70;99.90;;;;;;4970738;28;20106;-65
2021/01/23 09:53:13;;;;;;;13.40;2.90;;;4.70;99.90;;;;;;4961298;28;20053;-71
2021/01/23 09:55:42;;;;;;;13.77;3.22;;;4.70;99.90;;;;;;4972782;28;20052;-67
2021/01/23 09:58:08;;;;;;;8.15;1.85;;;4.80;99.90;;;;;;4960095;28;20189;-66
2021/01/23 10:00:35;;;;;;;14.60;3.65;;;4.80;99.90;;;;;;4970948;28;20188;-65
2021/01/23 10:03:01;;;;;;;16.38;3.70;;;4.80;99.90;;;;;;4960970;28;21451;-66
2021/01/23 10:05:28;;;;;;;8.00;2.28;;;4.90;99.90;;;;;;4970068;28;20141;-69
2021/01/23 10:07:55;;;;;;;9.55;2.53;;;4.90;99.90;;;;;;4965510;28;20046;-66
2021/01/23 10:10:21;;;;;;;16.45;2.65;;;4.90;99.90;;;;;;4962685;28;20579;-65
2021/01/23 10:12:48;;;;;;;12.00;2.33;;;4.90;99.90;;;;;;4972450;28;20338;-68
2021/01/23 10:15:15;;;;;;;11.85;3.13;;;4.90;99.90;;;;;;4962146;28;20043;-65
2021/01/23 10:17:41;;;;;;;9.75;3.08;;;5.00;99.90;;;;;;4959665;28;20055;-68
2021/01/23 10:20:09;;;;;;;14.73;4.05;;;5.00;99.90;;;;;;4961675;28;20124;-70
2021/01/23 10:22:35;;;;;;;13.18;2.53;;;4.90;99.90;;;;;;4961233;28;20135;-66
2021/01/23 10:25:02;;;;;;;14.60;3.33;;;5.00;99.90;;;;;;4961389;28;20065;-66
2021/01/23 10:27:29;;;;;;;15.70;3.83;;;5.00;99.90;;;;;;4967002;28;20065;-69
2021/01/23 10:29:56;;;;;;;11.00;2.65;;;5.00;99.90;;;;;;4961335;28;20072;-67
2021/01/23 10:32:22;;;;;;;18.10;3.33;;;5.00;99.90;;;;;;4958895;28;20133;-66
2021/01/23 10:34:49;;;;;;;14.82;3.15;;;5.00;99.90;;;;;;4963768;28;20443;-73
2021/01/23 10:37:15;;;;;;;10.02;2.63;;;5.00;99.90;;;;;;4961671;28;20731;-69
2021/01/23 10:39:42;;;;;;;10.48;2.42;;;5.00;99.90;;;;;;4961563;28;20053;-67
2021/01/23 10:42:09;;;;;;;11.52;2.95;;;5.00;99.90;;;;;;4960043;28;20502;-68
2021/01/23 10:44:39;;;;;;;13.05;2.90;;;5.00;99.90;;;;;;4963764;28;20401;-67
2021/01/23 10:47:06;;;;;;;12.07;2.75;;;5.00;99.90;;;;;;4963343;28;20123;-69
2021/01/23 10:49:34;;;;;;;7.20;2.70;;;5.00;99.90;;;;;;4964289;28;20472;-72
2021/01/23 10:52:02;;;;;;;16.73;3.42;;;5.00;99.90;;;;;;4960943;28;20051;-69
2021/01/23 10:54:29;;;;;;;10.70;3.22;;;5.00;99.90;;;;;;4962493;28;20450;-67
2021/01/23 10:56:55;;;;;;;16.15;2.75;;;5.00;99.90;;;;;;4959752;28;20541;-71
2021/01/23 10:59:22;;;;;;;21.88;3.35;;;4.90;99.90;;;;;;4962511;28;20051;-66
2021/01/23 11:01:48;;;;;;;16.27;3.00;;;4.90;99.90;;;;;;4962509;28;20690;-68
2021/01/23 11:04:15;;;;;;;13.68;2.25;;;4.90;99.90;;;;;;4960969;28;20050;-65
2021/01/23 11:06:43;;;;;;;6.72;2.45;;;4.80;99.90;;;;;;4963931;28;20105;-67
2021/01/23 11:09:10;;;;;;;10.68;2.70;;;4.80;99.90;;;;;;4960008;28;20063;-68
2021/01/23 11:11:36;;;;;;;18.60;3.80;;;4.80;99.90;;;;;;4969643;28;20125;-69
2021/01/23 11:14:03;;;;;;;12.90;3.08;;;4.80;99.90;;;;;;4961165;28;20741;-66
2021/01/23 11:16:30;;;;;;;12.55;2.97;;;4.80;99.90;;;;;;4964770;28;20117;-66
2021/01/23 11:18:57;;;;;;;14.75;3.38;;;4.70;99.90;;;;;;4957646;28;20043;-67
2021/01/23 11:21:24;;;;;;;11.13;2.58;;;4.70;99.90;;;;;;4967254;28;20466;-67
2021/01/23 11:23:50;;;;;;;7.43;2.38;;;4.70;99.90;;;;;;4959703;28;20062;-67
2021/01/23 11:26:22;;;;;;;11.77;2.10;;;4.70;99.90;;;;;;4962596;28;20161;-69
2021/01/23 11:28:49;;;;;;;9.70;3.63;;;4.80;99.90;;;;;;4962754;28;20053;-67
2021/01/23 11:31:16;;;;;;;11.85;2.28;;;4.80;99.90;;;;;;4964147;28;20840;-66
2021/01/23 11:33:43;;;;;;;14.85;2.85;;;4.80;99.90;;;;;;4962350;28;20117;-65
2021/01/23 11:36:09;;;;;;;7.22;1.92;;;4.90;99.90;;;;;;4960357;28;20094;-66
2021/01/23 11:38:36;;;;;;;11.20;2.25;;;4.90;99.90;;;;;;4960703;28;20062;-68
2021/01/23 11:41:02;;;;;;;13.98;3.58;;;4.90;99.90;;;;;;4961292;28;20050;-69
2021/01/23 11:43:29;;;;;;;12.38;2.70;;;4.90;99.90;;;;;;4963788;28;20117;-68
2021/01/23 11:45:55;;;;;;;11.25;2.88;;;5.00;99.90;;;;;;4959382;28;20057;-70
2021/01/23 11:48:22;;;;;;;6.10;2.13;;;4.90;99.90;;;;;;4962264;28;20069;-69
2021/01/23 11:50:48;;;;;;;15.90;2.55;;;4.90;99.90;;;;;;4961262;28;20117;-66
2021/01/23 11:53:15;;;;;;;13.52;2.83;;;4.90;99.90;;;;;;4967851;28;20097;-65
2021/01/23 11:55:42;;;;;;;16.33;2.80;;;5.00;99.90;;;;;;4962955;28;20043;-68
2021/01/23 11:58:09;;;;;;;13.90;2.30;;;5.00;99.90;;;;;;4956276;28;20733;-68
2021/01/23 12:00:35;;;;;;;16.38;2.72;;;4.90;99.90;;;;;;4968672;28;20051;-68
2021/01/23 12:03:03;;;;;;;14.75;4.43;;;4.90;99.90;;;;;;4964252;28;20066;-66
2021/01/23 12:05:32;;;;;;;12.18;3.63;;;4.90;99.90;;;;;;4966807;28;20062;-68
2021/01/23 12:07:58;;;;;;;12.55;3.15;;;4.90;99.90;;;;;;4963571;28;20056;-66
2021/01/23 12:10:25;;;;;;;9.13;3.17;;;4.90;99.90;;;;;;4963560;28;20054;-66
2021/01/23 12:12:52;;;;;;;9.07;2.65;;;4.90;99.90;;;;;;4963934;28;20529;-71
2021/01/23 12:15:19;;;;;;;10.73;2.60;;;4.90;99.90;;;;;;4969306;28;20043;-68
2021/01/23 12:17:45;;;;;;;8.60;2.47;;;4.80;99.90;;;;;;4965370;28;20463;-67
2021/01/23 12:20:12;;;;;;;12.52;3.78;;;4.80;99.90;;;;;;4965982;28;20487;-68
2021/01/23 12:22:39;;;;;;;14.38;2.83;;;4.80;99.90;;;;;;4961293;28;20057;-68
2021/01/23 12:25:10;;;;;;;20.33;3.22;;;4.80;99.90;;;;;;4966517;28;20121;-70
2021/01/23 12:27:36;;;;;;;;;;;4.80;99.90;;;;;;4962809;28;20039;-65
2021/01/23 12:30:05;;;;;;;5.75;2.20;;;4.80;99.90;;;;;;4964952;28;19926;-65
2021/01/23 12:32:32;;;;;;;15.35;3.47;;;4.80;99.90;;;;;;4961879;28;20571;-73
2021/01/23 12:35:00;;;;;;;13.73;2.85;;;4.80;99.90;;;;;;4964464;28;20039;-70
2021/01/23 12:37:28;;;;;;;12.65;2.60;;;4.80;99.90;;;;;;4966866;28;20539;-67
2021/01/23 12:39:54;;;;;;;20.77;4.47;;;4.80;99.90;;;;;;4965289;28;21063;-67
2021/01/23 12:42:21;;;;;;;14.20;2.42;;;4.90;99.90;;;;;;4963628;28;20046;-67
2021/01/23 12:44:47;;;;;;;16.15;2.80;;;4.90;99.90;;;;;;4964906;28;20126;-67
2021/01/23 12:47:13;;;;;;;13.68;3.47;;;4.90;99.90;;;;;;4967729;28;20046;-72
2021/01/23 12:49:40;;;;;;;10.10;3.13;;;4.90;99.90;;;;;;4962861;28;20039;-65
2021/01/23 12:52:06;;;;;;;18.77;3.33;;;4.80;99.90;;;;;;4967078;28;20043;-67
2021/01/23 12:54:33;;;;;;;13.68;3.55;;;4.80;99.90;;;;;;4967071;28;20078;-67
2021/01/23 12:56:59;;;;;;;12.07;4.30;;;4.80;99.90;;;;;;4962994;28;20081;-70
2021/01/23 12:59:26;;;;;;;13.27;4.10;;;4.80;99.90;;;;;;4966715;28;20149;-70